NZOH/OHA METAR and TAF weather

Enter ICAO airport designator
Station Type Date Time Source
NZOH METAR 2019/06/17 00:00 UTC NOAA

NZOH 170000Z 28019G29KT 25KM FEW025 SCT035 13/05 Q1011 TEMPO NOSIG


Station Type Date Time Source
NZOH Decoded METAR 2019/06/17 00:00 UTC NOAA

Ohakea, New Zealand (NZOH) 40-12S 175-22E 52M
Jun 16, 2019 - 08:00 PM EDT / 2019.06.17 0000 UTC
Wind: from the W (280 degrees) at 22 MPH (19 KT) gusting to 33 MPH (29 KT):0
Sky conditions: partly cloudy
Temperature: 55 F (13 C)
Dew Point: 41 F (5 C)
Relative Humidity: 58%
Pressure (altimeter): 29.85 in. Hg (1011 hPa)
ob: NZOH 170000Z 28019G29KT 25KM FEW025 SCT035 13/05 Q1011 TEMPO NOSIG
cycle: 0

Station Type Date Time Source
NZOH TAF 2007/12/14 04:59 UTC NOAA

TAF NZOH 140459Z 140606 11020KT 30KM SCT080 BECMH 0911 03008KT
BECMG 2224 27012KT

Example: see airport list